sensor_id;sensor_type;location;lat;lon;timestamp;P1;durP1;ratioP1;P2;durP2;ratioP2
7142;SDS011;3613;48.902;9.204;2024-02-14T00:02:15;15.00;;;8.27;;
7142;SDS011;3613;48.902;9.204;2024-02-14T00:04:41;38.03;;;14.63;;
7142;SDS011;3613;48.902;9.204;2024-02-14T00:07:06;18.83;;;9.80;;
7142;SDS011;3613;48.902;9.204;2024-02-14T00:09:34;22.70;;;9.73;;
7142;SDS011;3613;48.902;9.204;2024-02-14T00:12:02;14.03;;;7.40;;
7142;SDS011;3613;48.902;9.204;2024-02-14T00:14:28;13.67;;;7.97;;
7142;SDS011;3613;48.902;9.204;2024-02-14T00:16:53;9.90;;;6.60;;
7142;SDS011;3613;48.902;9.204;2024-02-14T00:19:21;10.47;;;6.27;;
7142;SDS011;3613;48.902;9.204;2024-02-14T00:21:47;9.87;;;6.53;;
7142;SDS011;3613;48.902;9.204;2024-02-14T00:24:13;17.13;;;7.90;;
7142;SDS011;3613;48.902;9.204;2024-02-14T00:26:38;13.50;;;7.27;;
7142;SDS011;3613;48.902;9.204;2024-02-14T00:29:04;15.87;;;6.73;;
7142;SDS011;3613;48.902;9.204;2024-02-14T00:31:30;16.30;;;6.50;;
7142;SDS011;3613;48.902;9.204;2024-02-14T00:33:55;10.13;;;6.23;;
7142;SDS011;3613;48.902;9.204;2024-02-14T00:36:21;9.07;;;5.90;;
7142;SDS011;3613;48.902;9.204;2024-02-14T00:38:51;15.70;;;7.03;;
7142;SDS011;3613;48.902;9.204;2024-02-14T00:41:19;11.40;;;6.40;;
7142;SDS011;3613;48.902;9.204;2024-02-14T00:43:45;10.30;;;6.37;;
7142;SDS011;3613;48.902;9.204;2024-02-14T00:46:20;11.40;;;6.00;;
7142;SDS011;3613;48.902;9.204;2024-02-14T00:48:45;9.70;;;5.87;;
7142;SDS011;3613;48.902;9.204;2024-02-14T00:51:11;6.83;;;5.37;;
7142;SDS011;3613;48.902;9.204;2024-02-14T00:53:37;9.90;;;6.43;;
7142;SDS011;3613;48.902;9.204;2024-02-14T00:56:03;10.60;;;6.07;;
7142;SDS011;3613;48.902;9.204;2024-02-14T00:58:31;10.60;;;6.53;;
7142;SDS011;3613;48.902;9.204;2024-02-14T01:00:56;6.70;;;5.53;;
7142;SDS011;3613;48.902;9.204;2024-02-14T01:03:22;8.27;;;6.27;;
7142;SDS011;3613;48.902;9.204;2024-02-14T01:05:50;9.13;;;5.53;;
7142;SDS011;3613;48.902;9.204;2024-02-14T01:08:16;9.93;;;6.10;;
7142;SDS011;3613;48.902;9.204;2024-02-14T01:10:42;9.27;;;5.70;;
7142;SDS011;3613;48.902;9.204;2024-02-14T01:13:08;12.03;;;6.83;;
7142;SDS011;3613;48.902;9.204;2024-02-14T01:15:33;9.87;;;5.60;;
7142;SDS011;3613;48.902;9.204;2024-02-14T01:17:59;10.47;;;5.57;;
7142;SDS011;3613;48.902;9.204;2024-02-14T01:20:25;7.53;;;5.30;;
7142;SDS011;3613;48.902;9.204;2024-02-14T01:22:51;8.00;;;5.20;;
7142;SDS011;3613;48.902;9.204;2024-02-14T01:25:17;9.97;;;5.50;;
7142;SDS011;3613;48.902;9.204;2024-02-14T01:27:43;9.03;;;4.97;;
7142;SDS011;3613;48.902;9.204;2024-02-14T01:30:09;6.57;;;4.87;;
7142;SDS011;3613;48.902;9.204;2024-02-14T01:32:35;8.40;;;4.97;;
7142;SDS011;3613;48.902;9.204;2024-02-14T01:35:06;8.63;;;5.07;;
7142;SDS011;3613;48.902;9.204;2024-02-14T01:37:34;7.03;;;4.30;;
7142;SDS011;3613;48.902;9.204;2024-02-14T01:40:00;7.37;;;4.70;;
7142;SDS011;3613;48.902;9.204;2024-02-14T01:42:26;5.57;;;4.73;;
7142;SDS011;3613;48.902;9.204;2024-02-14T01:44:52;8.13;;;4.30;;
7142;SDS011;3613;48.902;9.204;2024-02-14T01:47:19;7.23;;;4.60;;
7142;SDS011;3613;48.902;9.204;2024-02-14T01:49:48;6.23;;;4.90;;
7142;SDS011;3613;48.902;9.204;2024-02-14T01:52:16;9.07;;;5.00;;
7142;SDS011;3613;48.902;9.204;2024-02-14T01:54:42;7.60;;;5.17;;
7142;SDS011;3613;48.902;9.204;2024-02-14T01:57:08;7.80;;;5.00;;
7142;SDS011;3613;48.902;9.204;2024-02-14T01:59:33;8.13;;;5.07;;
7142;SDS011;3613;48.902;9.204;2024-02-14T02:02:00;7.60;;;4.30;;
7142;SDS011;3613;48.902;9.204;2024-02-14T02:04:26;7.67;;;4.90;;
7142;SDS011;3613;48.902;9.204;2024-02-14T02:06:54;5.40;;;4.63;;
7142;SDS011;3613;48.902;9.204;2024-02-14T02:09:21;7.33;;;4.73;;
7142;SDS011;3613;48.902;9.204;2024-02-14T02:11:50;6.33;;;4.97;;
7142;SDS011;3613;48.902;9.204;2024-02-14T02:14:19;8.80;;;5.70;;
7142;SDS011;3613;48.902;9.204;2024-02-14T02:16:45;6.33;;;4.90;;
7142;SDS011;3613;48.902;9.204;2024-02-14T02:19:11;5.90;;;4.63;;
7142;SDS011;3613;48.902;9.204;2024-02-14T02:21:41;6.43;;;4.70;;
7142;SDS011;3613;48.902;9.204;2024-02-14T02:24:08;6.73;;;5.03;;
7142;SDS011;3613;48.902;9.204;2024-02-14T02:26:36;9.43;;;5.30;;
7142;SDS011;3613;48.902;9.204;2024-02-14T02:29:01;8.97;;;5.40;;
7142;SDS011;3613;48.902;9.204;2024-02-14T02:31:27;7.77;;;4.90;;
7142;SDS011;3613;48.902;9.204;2024-02-14T02:33:52;7.90;;;5.43;;
7142;SDS011;3613;48.902;9.204;2024-02-14T02:36:18;6.50;;;4.67;;
7142;SDS011;3613;48.902;9.204;2024-02-14T02:38:44;8.63;;;5.53;;
7142;SDS011;3613;48.902;9.204;2024-02-14T02:41:09;6.57;;;4.63;;
7142;SDS011;3613;48.902;9.204;2024-02-14T02:43:37;7.67;;;5.13;;
7142;SDS011;3613;48.902;9.204;2024-02-14T02:46:03;7.87;;;5.30;;
7142;SDS011;3613;48.902;9.204;2024-02-14T02:48:28;7.43;;;5.23;;
7142;SDS011;3613;48.902;9.204;2024-02-14T02:50:56;7.20;;;5.03;;
7142;SDS011;3613;48.902;9.204;2024-02-14T02:53:22;9.83;;;5.97;;
7142;SDS011;3613;48.902;9.204;2024-02-14T02:55:50;7.93;;;5.30;;
7142;SDS011;3613;48.902;9.204;2024-02-14T02:58:16;5.90;;;4.57;;
7142;SDS011;3613;48.902;9.204;2024-02-14T03:00:46;8.53;;;5.23;;
7142;SDS011;3613;48.902;9.204;2024-02-14T03:03:14;5.40;;;3.90;;
7142;SDS011;3613;48.902;9.204;2024-02-14T03:05:41;7.00;;;5.30;;
7142;SDS011;3613;48.902;9.204;2024-02-14T03:08:09;8.97;;;4.70;;
7142;SDS011;3613;48.902;9.204;2024-02-14T03:10:41;7.23;;;4.03;;
7142;SDS011;3613;48.902;9.204;2024-02-14T03:13:14;8.27;;;4.40;;
7142;SDS011;3613;48.902;9.204;2024-02-14T03:15:41;6.57;;;3.43;;
7142;SDS011;3613;48.902;9.204;2024-02-14T03:18:09;5.47;;;3.80;;
7142;SDS011;3613;48.902;9.204;2024-02-14T03:20:35;4.50;;;3.70;;
7142;SDS011;3613;48.902;9.204;2024-02-14T03:23:03;5.67;;;4.03;;
7142;SDS011;3613;48.902;9.204;2024-02-14T03:25:29;5.13;;;4.17;;
7142;SDS011;3613;48.902;9.204;2024-02-14T03:27:55;7.27;;;3.47;;
7142;SDS011;3613;48.902;9.204;2024-02-14T03:30:22;6.43;;;3.67;;
7142;SDS011;3613;48.902;9.204;2024-02-14T03:32:51;6.53;;;3.90;;
7142;SDS011;3613;48.902;9.204;2024-02-14T03:35:20;6.17;;;3.40;;
7142;SDS011;3613;48.902;9.204;2024-02-14T03:37:46;6.73;;;3.50;;
7142;SDS011;3613;48.902;9.204;2024-02-14T03:40:13;5.57;;;4.20;;
7142;SDS011;3613;48.902;9.204;2024-02-14T03:42:39;7.50;;;4.10;;
7142;SDS011;3613;48.902;9.204;2024-02-14T03:45:05;5.63;;;4.03;;
7142;SDS011;3613;48.902;9.204;2024-02-14T03:47:34;5.97;;;3.90;;
7142;SDS011;3613;48.902;9.204;2024-02-14T03:50:00;6.67;;;4.33;;
7142;SDS011;3613;48.902;9.204;2024-02-14T03:52:27;4.63;;;3.63;;
7142;SDS011;3613;48.902;9.204;2024-02-14T03:54:55;5.80;;;4.30;;
7142;SDS011;3613;48.902;9.204;2024-02-14T03:57:26;7.27;;;4.30;;
7142;SDS011;3613;48.902;9.204;2024-02-14T03:59:53;4.40;;;3.53;;
7142;SDS011;3613;48.902;9.204;2024-02-14T04:02:26;10.67;;;5.20;;
7142;SDS011;3613;48.902;9.204;2024-02-14T04:04:54;8.03;;;5.23;;
7142;SDS011;3613;48.902;9.204;2024-02-14T04:07:19;6.43;;;4.30;;
7142;SDS011;3613;48.902;9.204;2024-02-14T04:09:45;7.40;;;3.73;;
7142;SDS011;3613;48.902;9.204;2024-02-14T04:12:13;6.83;;;4.30;;
7142;SDS011;3613;48.902;9.204;2024-02-14T04:14:43;7.80;;;4.00;;
7142;SDS011;3613;48.902;9.204;2024-02-14T04:17:09;5.80;;;3.73;;
7142;SDS011;3613;48.902;9.204;2024-02-14T04:19:37;5.53;;;3.57;;
7142;SDS011;3613;48.902;9.204;2024-02-14T04:22:03;5.97;;;3.50;;
7142;SDS011;3613;48.902;9.204;2024-02-14T04:24:29;5.43;;;3.70;;
7142;SDS011;3613;48.902;9.204;2024-02-14T04:26:57;7.23;;;4.50;;
7142;SDS011;3613;48.902;9.204;2024-02-14T04:29:23;6.50;;;4.00;;
7142;SDS011;3613;48.902;9.204;2024-02-14T04:31:49;7.77;;;3.87;;
7142;SDS011;3613;48.902;9.204;2024-02-14T04:34:20;4.90;;;3.77;;
7142;SDS011;3613;48.902;9.204;2024-02-14T04:36:48;4.93;;;3.80;;
7142;SDS011;3613;48.902;9.204;2024-02-14T04:39:13;7.23;;;3.87;;
7142;SDS011;3613;48.902;9.204;2024-02-14T04:41:39;6.13;;;3.67;;
7142;SDS011;3613;48.902;9.204;2024-02-14T04:44:06;6.23;;;4.00;;
7142;SDS011;3613;48.902;9.204;2024-02-14T04:46:34;9.50;;;3.70;;
7142;SDS011;3613;48.902;9.204;2024-02-14T04:49:01;5.50;;;3.57;;
7142;SDS011;3613;48.902;9.204;2024-02-14T04:51:28;5.13;;;3.43;;
7142;SDS011;3613;48.902;9.204;2024-02-14T04:53:55;5.67;;;3.13;;
7142;SDS011;3613;48.902;9.204;2024-02-14T04:56:23;7.17;;;3.63;;
7142;SDS011;3613;48.902;9.204;2024-02-14T04:58:50;4.40;;;3.57;;
7142;SDS011;3613;48.902;9.204;2024-02-14T05:01:16;4.27;;;3.10;;
7142;SDS011;3613;48.902;9.204;2024-02-14T05:03:43;6.60;;;3.00;;
7142;SDS011;3613;48.902;9.204;2024-02-14T05:06:09;5.03;;;3.43;;
7142;SDS011;3613;48.902;9.204;2024-02-14T05:08:34;4.40;;;3.13;;
7142;SDS011;3613;48.902;9.204;2024-02-14T05:11:02;5.70;;;3.33;;
7142;SDS011;3613;48.902;9.204;2024-02-14T05:13:29;6.37;;;2.90;;
7142;SDS011;3613;48.902;9.204;2024-02-14T05:15:55;4.93;;;3.20;;
7142;SDS011;3613;48.902;9.204;2024-02-14T05:18:21;3.63;;;2.67;;
7142;SDS011;3613;48.902;9.204;2024-02-14T05:20:47;3.73;;;2.63;;
7142;SDS011;3613;48.902;9.204;2024-02-14T05:23:12;3.47;;;3.03;;
7142;SDS011;3613;48.902;9.204;2024-02-14T05:25:43;4.13;;;2.90;;
7142;SDS011;3613;48.902;9.204;2024-02-14T05:28:09;4.57;;;3.00;;
7142;SDS011;3613;48.902;9.204;2024-02-14T05:30:38;5.53;;;3.50;;
7142;SDS011;3613;48.902;9.204;2024-02-14T05:33:04;3.97;;;2.90;;
7142;SDS011;3613;48.902;9.204;2024-02-14T05:35:32;4.97;;;3.27;;
7142;SDS011;3613;48.902;9.204;2024-02-14T05:37:58;5.20;;;3.13;;
7142;SDS011;3613;48.902;9.204;2024-02-14T05:40:23;4.57;;;3.07;;
7142;SDS011;3613;48.902;9.204;2024-02-14T05:42:51;5.37;;;3.60;;
7142;SDS011;3613;48.902;9.204;2024-02-14T05:45:17;5.73;;;3.40;;
7142;SDS011;3613;48.902;9.204;2024-02-14T05:47:43;4.53;;;3.23;;
7142;SDS011;3613;48.902;9.204;2024-02-14T05:50:08;5.80;;;3.50;;
7142;SDS011;3613;48.902;9.204;2024-02-14T05:52:38;7.13;;;3.80;;
7142;SDS011;3613;48.902;9.204;2024-02-14T05:55:06;4.67;;;2.90;;
7142;SDS011;3613;48.902;9.204;2024-02-14T05:57:33;4.40;;;3.70;;
7142;SDS011;3613;48.902;9.204;2024-02-14T06:00:01;4.63;;;3.30;;
7142;SDS011;3613;48.902;9.204;2024-02-14T06:02:29;8.30;;;3.80;;
7142;SDS011;3613;48.902;9.204;2024-02-14T06:04:55;5.00;;;3.43;;
7142;SDS011;3613;48.902;9.204;2024-02-14T06:07:23;4.63;;;3.67;;
7142;SDS011;3613;48.902;9.204;2024-02-14T06:09:49;4.13;;;3.23;;
7142;SDS011;3613;48.902;9.204;2024-02-14T06:12:14;6.07;;;3.97;;
7142;SDS011;3613;48.902;9.204;2024-02-14T06:14:42;6.87;;;3.90;;
7142;SDS011;3613;48.902;9.204;2024-02-14T06:17:08;5.33;;;3.40;;
7142;SDS011;3613;48.902;9.204;2024-02-14T06:19:33;7.63;;;3.33;;
7142;SDS011;3613;48.902;9.204;2024-02-14T06:22:00;4.20;;;3.33;;
7142;SDS011;3613;48.902;9.204;2024-02-14T06:24:28;4.53;;;3.10;;
7142;SDS011;3613;48.902;9.204;2024-02-14T06:26:56;5.97;;;3.50;;
7142;SDS011;3613;48.902;9.204;2024-02-14T06:29:21;4.80;;;2.80;;
7142;SDS011;3613;48.902;9.204;2024-02-14T06:31:49;3.50;;;3.13;;
7142;SDS011;3613;48.902;9.204;2024-02-14T06:34:15;4.70;;;3.33;;
7142;SDS011;3613;48.902;9.204;2024-02-14T06:36:44;4.00;;;3.17;;
7142;SDS011;3613;48.902;9.204;2024-02-14T06:39:11;4.40;;;3.33;;
7142;SDS011;3613;48.902;9.204;2024-02-14T06:41:39;8.00;;;3.53;;
7142;SDS011;3613;48.902;9.204;2024-02-14T06:44:08;5.77;;;3.20;;
7142;SDS011;3613;48.902;9.204;2024-02-14T06:46:34;5.33;;;3.27;;
7142;SDS011;3613;48.902;9.204;2024-02-14T06:49:02;4.97;;;3.10;;
7142;SDS011;3613;48.902;9.204;2024-02-14T06:51:28;5.70;;;3.57;;
7142;SDS011;3613;48.902;9.204;2024-02-14T06:53:56;7.33;;;3.67;;
7142;SDS011;3613;48.902;9.204;2024-02-14T06:56:21;7.47;;;3.90;;
7142;SDS011;3613;48.902;9.204;2024-02-14T06:58:47;5.97;;;4.00;;
7142;SDS011;3613;48.902;9.204;2024-02-14T07:01:20;5.50;;;3.90;;
7142;SDS011;3613;48.902;9.204;2024-02-14T07:03:48;7.47;;;3.90;;
7142;SDS011;3613;48.902;9.204;2024-02-14T07:06:13;6.83;;;3.47;;
7142;SDS011;3613;48.902;9.204;2024-02-14T07:08:42;8.10;;;3.53;;
7142;SDS011;3613;48.902;9.204;2024-02-14T07:11:08;8.53;;;3.87;;
7142;SDS011;3613;48.902;9.204;2024-02-14T07:13:33;4.57;;;3.37;;
7142;SDS011;3613;48.902;9.204;2024-02-14T07:16:02;4.80;;;3.23;;
7142;SDS011;3613;48.902;9.204;2024-02-14T07:18:30;7.83;;;3.90;;
7142;SDS011;3613;48.902;9.204;2024-02-14T07:20:58;6.70;;;3.70;;
7142;SDS011;3613;48.902;9.204;2024-02-14T07:23:26;6.37;;;3.47;;
7142;SDS011;3613;48.902;9.204;2024-02-14T07:25:52;7.57;;;4.63;;
7142;SDS011;3613;48.902;9.204;2024-02-14T07:28:18;6.97;;;3.30;;
7142;SDS011;3613;48.902;9.204;2024-02-14T07:30:43;8.20;;;3.83;;
7142;SDS011;3613;48.902;9.204;2024-02-14T07:33:09;4.47;;;3.03;;
7142;SDS011;3613;48.902;9.204;2024-02-14T07:35:38;7.10;;;3.40;;
7142;SDS011;3613;48.902;9.204;2024-02-14T07:38:04;7.70;;;3.47;;
7142;SDS011;3613;48.902;9.204;2024-02-14T07:40:29;6.13;;;2.80;;
7142;SDS011;3613;48.902;9.204;2024-02-14T07:43:02;6.93;;;3.80;;
7142;SDS011;3613;48.902;9.204;2024-02-14T07:45:32;4.93;;;3.33;;
7142;SDS011;3613;48.902;9.204;2024-02-14T07:47:59;6.03;;;4.03;;
7142;SDS011;3613;48.902;9.204;2024-02-14T07:50:25;6.67;;;3.80;;
7142;SDS011;3613;48.902;9.204;2024-02-14T07:52:52;5.20;;;3.30;;
7142;SDS011;3613;48.902;9.204;2024-02-14T07:55:18;7.70;;;3.37;;
7142;SDS011;3613;48.902;9.204;2024-02-14T07:57:44;5.90;;;3.80;;
7142;SDS011;3613;48.902;9.204;2024-02-14T08:00:09;6.20;;;3.70;;
7142;SDS011;3613;48.902;9.204;2024-02-14T08:02:36;5.33;;;3.63;;
7142;SDS011;3613;48.902;9.204;2024-02-14T08:05:02;5.67;;;3.50;;
7142;SDS011;3613;48.902;9.204;2024-02-14T08:07:30;4.27;;;3.27;;
7142;SDS011;3613;48.902;9.204;2024-02-14T08:09:55;5.00;;;3.53;;
7142;SDS011;3613;48.902;9.204;2024-02-14T08:12:21;5.40;;;3.30;;
7142;SDS011;3613;48.902;9.204;2024-02-14T08:14:50;5.93;;;3.40;;
7142;SDS011;3613;48.902;9.204;2024-02-14T08:17:18;5.93;;;3.67;;
7142;SDS011;3613;48.902;9.204;2024-02-14T08:19:44;7.57;;;2.97;;
7142;SDS011;3613;48.902;9.204;2024-02-14T08:22:13;4.83;;;3.30;;
7142;SDS011;3613;48.902;9.204;2024-02-14T08:24:39;6.50;;;3.67;;
7142;SDS011;3613;48.902;9.204;2024-02-14T08:27:06;4.07;;;2.77;;
7142;SDS011;3613;48.902;9.204;2024-02-14T08:29:33;7.83;;;3.30;;
7142;SDS011;3613;48.902;9.204;2024-02-14T08:31:59;6.20;;;3.63;;
7142;SDS011;3613;48.902;9.204;2024-02-14T08:34:25;4.10;;;3.17;;
7142;SDS011;3613;48.902;9.204;2024-02-14T08:36:51;4.50;;;2.90;;
7142;SDS011;3613;48.902;9.204;2024-02-14T08:39:19;4.23;;;3.30;;
7142;SDS011;3613;48.902;9.204;2024-02-14T08:41:45;5.23;;;3.50;;
7142;SDS011;3613;48.902;9.204;2024-02-14T08:44:12;6.97;;;3.90;;
7142;SDS011;3613;48.902;9.204;2024-02-14T08:46:45;6.43;;;3.67;;
7142;SDS011;3613;48.902;9.204;2024-02-14T08:49:13;10.70;;;3.77;;
7142;SDS011;3613;48.902;9.204;2024-02-14T08:51:39;5.33;;;3.27;;
7142;SDS011;3613;48.902;9.204;2024-02-14T08:54:07;5.97;;;3.20;;
7142;SDS011;3613;48.902;9.204;2024-02-14T08:56:33;5.93;;;3.07;;
7142;SDS011;3613;48.902;9.204;2024-02-14T08:59:01;6.53;;;3.20;;
7142;SDS011;3613;48.902;9.204;2024-02-14T09:01:28;6.13;;;3.13;;
7142;SDS011;3613;48.902;9.204;2024-02-14T09:03:54;5.67;;;3.40;;
7142;SDS011;3613;48.902;9.204;2024-02-14T09:06:20;6.30;;;3.37;;
7142;SDS011;3613;48.902;9.204;2024-02-14T09:08:49;6.13;;;4.07;;
7142;SDS011;3613;48.902;9.204;2024-02-14T09:11:18;6.10;;;3.37;;
7142;SDS011;3613;48.902;9.204;2024-02-14T09:13:44;8.50;;;3.30;;
7142;SDS011;3613;48.902;9.204;2024-02-14T09:16:12;8.07;;;3.40;;
7142;SDS011;3613;48.902;9.204;2024-02-14T09:18:44;6.40;;;3.40;;
7142;SDS011;3613;48.902;9.204;2024-02-14T09:21:11;4.43;;;3.50;;
7142;SDS011;3613;48.902;9.204;2024-02-14T09:23:36;4.57;;;3.50;;
7142;SDS011;3613;48.902;9.204;2024-02-14T09:26:05;5.53;;;2.97;;
7142;SDS011;3613;48.902;9.204;2024-02-14T09:28:30;6.73;;;3.70;;
7142;SDS011;3613;48.902;9.204;2024-02-14T09:31:00;5.67;;;3.57;;
7142;SDS011;3613;48.902;9.204;2024-02-14T09:33:26;10.70;;;4.17;;
7142;SDS011;3613;48.902;9.204;2024-02-14T09:35:52;5.00;;;3.43;;
7142;SDS011;3613;48.902;9.204;2024-02-14T09:38:18;7.30;;;4.10;;
7142;SDS011;3613;48.902;9.204;2024-02-14T09:40:43;3.30;;;2.20;;
7142;SDS011;3613;48.902;9.204;2024-02-14T09:43:34;3.23;;;2.30;;
7142;SDS011;3613;48.902;9.204;2024-02-14T09:45:59;2.40;;;1.70;;
7142;SDS011;3613;48.902;9.204;2024-02-14T09:48:28;2.63;;;1.90;;
7142;SDS011;3613;48.902;9.204;2024-02-14T09:50:57;4.60;;;1.97;;
7142;SDS011;3613;48.902;9.204;2024-02-14T09:53:23;3.00;;;1.93;;
7142;SDS011;3613;48.902;9.204;2024-02-14T09:55:52;2.20;;;1.50;;
7142;SDS011;3613;48.902;9.204;2024-02-14T09:58:19;5.57;;;1.93;;
7142;SDS011;3613;48.902;9.204;2024-02-14T10:00:45;2.13;;;1.50;;
7142;SDS011;3613;48.902;9.204;2024-02-14T10:03:11;3.30;;;1.80;;
7142;SDS011;3613;48.902;9.204;2024-02-14T10:05:36;3.03;;;1.97;;
7142;SDS011;3613;48.902;9.204;2024-02-14T10:08:02;2.13;;;1.93;;
7142;SDS011;3613;48.902;9.204;2024-02-14T10:10:28;4.13;;;1.63;;
7142;SDS011;3613;48.902;9.204;2024-02-14T10:12:58;2.80;;;1.70;;
7142;SDS011;3613;48.902;9.204;2024-02-14T10:15:24;4.33;;;1.70;;
7142;SDS011;3613;48.902;9.204;2024-02-14T10:17:50;1.73;;;1.30;;
7142;SDS011;3613;48.902;9.204;2024-02-14T10:20:18;2.43;;;1.70;;
7142;SDS011;3613;48.902;9.204;2024-02-14T10:22:46;1.60;;;1.30;;
7142;SDS011;3613;48.902;9.204;2024-02-14T10:25:12;2.30;;;1.40;;
7142;SDS011;3613;48.902;9.204;2024-02-14T10:27:39;3.60;;;1.50;;
7142;SDS011;3613;48.902;9.204;2024-02-14T10:30:09;1.67;;;1.50;;
7142;SDS011;3613;48.902;9.204;2024-02-14T10:32:39;1.80;;;1.50;;
7142;SDS011;3613;48.902;9.204;2024-02-14T10:35:12;3.20;;;1.50;;
7142;SDS011;3613;48.902;9.204;2024-02-14T10:37:38;2.00;;;1.47;;
7142;SDS011;3613;48.902;9.204;2024-02-14T10:40:04;2.57;;;1.50;;
7142;SDS011;3613;48.902;9.204;2024-02-14T10:42:34;2.77;;;1.40;;
7142;SDS011;3613;48.902;9.204;2024-02-14T10:45:00;2.60;;;1.50;;
7142;SDS011;3613;48.902;9.204;2024-02-14T10:47:33;2.10;;;1.40;;
7142;SDS011;3613;48.902;9.204;2024-02-14T10:50:03;3.03;;;1.57;;
7142;SDS011;3613;48.902;9.204;2024-02-14T10:52:36;2.40;;;1.40;;
7142;SDS011;3613;48.902;9.204;2024-02-14T10:55:06;3.80;;;1.20;;
7142;SDS011;3613;48.902;9.204;2024-02-14T10:57:34;1.73;;;1.43;;
7142;SDS011;3613;48.902;9.204;2024-02-14T11:00:07;2.03;;;1.10;;
7142;SDS011;3613;48.902;9.204;2024-02-14T11:02:35;1.27;;;1.17;;
7142;SDS011;3613;48.902;9.204;2024-02-14T11:05:02;2.00;;;1.40;;
7142;SDS011;3613;48.902;9.204;2024-02-14T11:07:29;1.97;;;1.20;;
7142;SDS011;3613;48.902;9.204;2024-02-14T11:10:08;3.80;;;1.53;;
7142;SDS011;3613;48.902;9.204;2024-02-14T11:12:37;2.20;;;1.43;;
7142;SDS011;3613;48.902;9.204;2024-02-14T11:15:24;3.10;;;1.50;;
7142;SDS011;3613;48.902;9.204;2024-02-14T11:18:03;2.30;;;1.23;;
7142;SDS011;3613;48.902;9.204;2024-02-14T11:20:36;3.20;;;1.37;;
7142;SDS011;3613;48.902;9.204;2024-02-14T11:23:06;2.13;;;1.60;;
7142;SDS011;3613;48.902;9.204;2024-02-14T11:25:36;1.67;;;1.30;;
7142;SDS011;3613;48.902;9.204;2024-02-14T11:28:18;4.20;;;1.37;;
7142;SDS011;3613;48.902;9.204;2024-02-14T11:30:48;3.73;;;1.50;;
7142;SDS011;3613;48.902;9.204;2024-02-14T11:33:17;3.03;;;1.30;;
7142;SDS011;3613;48.902;9.204;2024-02-14T11:35:45;2.40;;;1.20;;
7142;SDS011;3613;48.902;9.204;2024-02-14T11:38:12;2.17;;;1.53;;
7142;SDS011;3613;48.902;9.204;2024-02-14T11:40:39;3.77;;;1.70;;
7142;SDS011;3613;48.902;9.204;2024-02-14T11:43:10;2.37;;;1.70;;
7142;SDS011;3613;48.902;9.204;2024-02-14T11:45:42;1.70;;;1.30;;
7142;SDS011;3613;48.902;9.204;2024-02-14T11:48:11;5.53;;;1.50;;
7142;SDS011;3613;48.902;9.204;2024-02-14T11:50:40;3.13;;;1.70;;
7142;SDS011;3613;48.902;9.204;2024-02-14T11:53:08;2.13;;;1.40;;
7142;SDS011;3613;48.902;9.204;2024-02-14T11:55:37;2.27;;;1.47;;
7142;SDS011;3613;48.902;9.204;2024-02-14T11:58:09;3.23;;;1.50;;
7142;SDS011;3613;48.902;9.204;2024-02-14T12:03:10;3.50;;;1.67;;
7142;SDS011;3613;48.902;9.204;2024-02-14T12:05:49;3.43;;;1.50;;
7142;SDS011;3613;48.902;9.204;2024-02-14T12:08:16;2.20;;;1.30;;
7142;SDS011;3613;48.902;9.204;2024-02-14T12:10:43;1.90;;;1.23;;
7142;SDS011;3613;48.902;9.204;2024-02-14T12:13:15;2.43;;;1.57;;
7142;SDS011;3613;48.902;9.204;2024-02-14T12:15:46;2.27;;;1.40;;
7142;SDS011;3613;48.902;9.204;2024-02-14T12:18:12;2.27;;;1.80;;
7142;SDS011;3613;48.902;9.204;2024-02-14T12:20:41;1.47;;;1.37;;
7142;SDS011;3613;48.902;9.204;2024-02-14T12:23:13;2.97;;;2.00;;
7142;SDS011;3613;48.902;9.204;2024-02-14T12:25:47;1.80;;;1.53;;
7142;SDS011;3613;48.902;9.204;2024-02-14T12:28:15;3.43;;;1.50;;
7142;SDS011;3613;48.902;9.204;2024-02-14T12:30:51;1.60;;;1.50;;
7142;SDS011;3613;48.902;9.204;2024-02-14T12:33:21;2.27;;;1.40;;
7142;SDS011;3613;48.902;9.204;2024-02-14T12:35:50;2.93;;;1.40;;
7142;SDS011;3613;48.902;9.204;2024-02-14T12:38:18;2.50;;;1.40;;
7142;SDS011;3613;48.902;9.204;2024-02-14T12:40:44;2.47;;;1.67;;
7142;SDS011;3613;48.902;9.204;2024-02-14T12:43:11;1.80;;;1.40;;
7142;SDS011;3613;48.902;9.204;2024-02-14T12:45:38;1.20;;;1.10;;
7142;SDS011;3613;48.902;9.204;2024-02-14T12:48:07;2.43;;;1.33;;
7142;SDS011;3613;48.902;9.204;2024-02-14T12:50:34;2.37;;;1.30;;
7142;SDS011;3613;48.902;9.204;2024-02-14T12:53:02;2.50;;;1.20;;
7142;SDS011;3613;48.902;9.204;2024-02-14T12:55:35;1.63;;;0.93;;
7142;SDS011;3613;48.902;9.204;2024-02-14T12:58:00;0.80;;;0.80;;
7142;SDS011;3613;48.902;9.204;2024-02-14T13:00:29;1.17;;;0.90;;
7142;SDS011;3613;48.902;9.204;2024-02-14T13:02:57;1.57;;;1.07;;
7142;SDS011;3613;48.902;9.204;2024-02-14T13:05:23;1.30;;;1.20;;
7142;SDS011;3613;48.902;9.204;2024-02-14T13:07:53;1.20;;;1.00;;
7142;SDS011;3613;48.902;9.204;2024-02-14T13:10:21;1.30;;;1.00;;
7142;SDS011;3613;48.902;9.204;2024-02-14T13:12:52;0.80;;;0.80;;
7142;SDS011;3613;48.902;9.204;2024-02-14T13:15:17;1.70;;;1.40;;
7142;SDS011;3613;48.902;9.204;2024-02-14T13:17:43;2.63;;;1.10;;
7142;SDS011;3613;48.902;9.204;2024-02-14T13:20:10;1.13;;;0.90;;
7142;SDS011;3613;48.902;9.204;2024-02-14T13:22:36;1.10;;;1.00;;
7142;SDS011;3613;48.902;9.204;2024-02-14T13:25:02;0.70;;;0.70;;
7142;SDS011;3613;48.902;9.204;2024-02-14T13:27:32;0.70;;;0.60;;
7142;SDS011;3613;48.902;9.204;2024-02-14T13:29:58;2.03;;;0.90;;
7142;SDS011;3613;48.902;9.204;2024-02-14T13:32:26;0.93;;;0.67;;
7142;SDS011;3613;48.902;9.204;2024-02-14T13:34:52;1.07;;;0.80;;
7142;SDS011;3613;48.902;9.204;2024-02-14T13:37:18;1.13;;;1.03;;
7142;SDS011;3613;48.902;9.204;2024-02-14T13:39:46;1.20;;;0.97;;
7142;SDS011;3613;48.902;9.204;2024-02-14T13:42:12;1.60;;;0.83;;
7142;SDS011;3613;48.902;9.204;2024-02-14T13:44:40;1.93;;;1.00;;
7142;SDS011;3613;48.902;9.204;2024-02-14T13:47:06;1.30;;;1.00;;
7142;SDS011;3613;48.902;9.204;2024-02-14T13:49:34;2.40;;;1.03;;
7142;SDS011;3613;48.902;9.204;2024-02-14T13:51:59;1.67;;;1.57;;
7142;SDS011;3613;48.902;9.204;2024-02-14T13:54:25;2.90;;;1.47;;
7142;SDS011;3613;48.902;9.204;2024-02-14T13:56:53;1.33;;;0.90;;
7142;SDS011;3613;48.902;9.204;2024-02-14T13:59:19;1.37;;;0.80;;
7142;SDS011;3613;48.902;9.204;2024-02-14T14:01:48;1.87;;;1.20;;
7142;SDS011;3613;48.902;9.204;2024-02-14T14:04:16;2.13;;;1.60;;
7142;SDS011;3613;48.902;9.204;2024-02-14T14:06:41;3.03;;;1.20;;
7142;SDS011;3613;48.902;9.204;2024-02-14T14:09:07;1.00;;;0.80;;
7142;SDS011;3613;48.902;9.204;2024-02-14T14:11:33;1.80;;;1.40;;
7142;SDS011;3613;48.902;9.204;2024-02-14T14:13:59;2.17;;;1.27;;
7142;SDS011;3613;48.902;9.204;2024-02-14T14:16:29;2.33;;;1.30;;
7142;SDS011;3613;48.902;9.204;2024-02-14T14:18:57;1.53;;;1.10;;
7142;SDS011;3613;48.902;9.204;2024-02-14T14:21:26;1.90;;;1.23;;
7142;SDS011;3613;48.902;9.204;2024-02-14T14:23:51;2.43;;;1.80;;
7142;SDS011;3613;48.902;9.204;2024-02-14T14:26:20;2.17;;;1.50;;
7142;SDS011;3613;48.902;9.204;2024-02-14T14:28:48;1.70;;;1.47;;
7142;SDS011;3613;48.902;9.204;2024-02-14T14:31:19;6.57;;;2.67;;
7142;SDS011;3613;48.902;9.204;2024-02-14T14:33:47;4.43;;;2.70;;
7142;SDS011;3613;48.902;9.204;2024-02-14T14:36:16;3.60;;;2.27;;
7142;SDS011;3613;48.902;9.204;2024-02-14T14:38:47;3.87;;;2.20;;
7142;SDS011;3613;48.902;9.204;2024-02-14T14:41:12;4.17;;;2.13;;
7142;SDS011;3613;48.902;9.204;2024-02-14T14:43:42;3.33;;;1.70;;
7142;SDS011;3613;48.902;9.204;2024-02-14T14:46:07;2.03;;;1.53;;
7142;SDS011;3613;48.902;9.204;2024-02-14T14:48:33;1.77;;;1.43;;
7142;SDS011;3613;48.902;9.204;2024-02-14T14:51:00;5.70;;;2.30;;
7142;SDS011;3613;48.902;9.204;2024-02-14T14:53:27;3.33;;;1.80;;
7142;SDS011;3613;48.902;9.204;2024-02-14T14:55:56;3.33;;;1.90;;
7142;SDS011;3613;48.902;9.204;2024-02-14T14:58:25;2.80;;;1.73;;
7142;SDS011;3613;48.902;9.204;2024-02-14T15:00:55;3.93;;;1.80;;
7142;SDS011;3613;48.902;9.204;2024-02-14T15:03:24;3.23;;;2.00;;
7142;SDS011;3613;48.902;9.204;2024-02-14T15:05:52;3.53;;;1.83;;
7142;SDS011;3613;48.902;9.204;2024-02-14T15:08:19;3.67;;;2.20;;
7142;SDS011;3613;48.902;9.204;2024-02-14T15:10:50;4.60;;;2.20;;
7142;SDS011;3613;48.902;9.204;2024-02-14T15:13:17;2.37;;;1.90;;
7142;SDS011;3613;48.902;9.204;2024-02-14T15:15:51;5.03;;;1.97;;
7142;SDS011;3613;48.902;9.204;2024-02-14T15:18:19;3.50;;;1.80;;
7142;SDS011;3613;48.902;9.204;2024-02-14T15:20:45;3.77;;;1.90;;